createdAt,value
2022-09-23T00:00:40.136Z,8.33
2022-09-23T00:02:58.552Z,8.33
2022-09-23T00:05:16.596Z,8.75
2022-09-23T00:07:36.032Z,8.49
2022-09-23T00:09:57.634Z,8.27
2022-09-23T00:12:13.174Z,8.54
2022-09-23T00:14:28.783Z,8.27
2022-09-23T00:16:44.413Z,8.38
2022-09-23T00:18:59.964Z,8.27
2022-09-23T00:21:15.505Z,8.54
2022-09-23T00:23:31.108Z,8.27
2022-09-23T00:25:46.700Z,8.49
2022-09-23T00:28:02.278Z,8.33
2022-09-23T00:30:17.898Z,8.49
2022-09-23T00:32:33.451Z,8.43
2022-09-23T00:34:49.038Z,8.54
2022-09-23T00:37:03.614Z,8.33
2022-09-23T00:39:19.211Z,8.33
2022-09-23T00:41:34.812Z,8.54
2022-09-23T00:43:50.375Z,8.33
2022-09-23T00:46:08.522Z,8.33
2022-09-23T00:48:23.027Z,8.33
2022-09-23T00:50:37.594Z,8.43
2022-09-23T00:52:50.725Z,8.27
2022-09-23T00:55:04.291Z,8.54
2022-09-23T00:57:19.867Z,8.33
2022-09-23T00:59:34.294Z,8.22
2022-09-23T01:01:48.100Z,8.43
2022-09-23T01:04:03.661Z,8.22
2022-09-23T01:06:20.065Z,8.27
2022-09-23T01:08:35.800Z,8.49
2022-09-23T01:10:53.883Z,8.27
2022-09-23T01:13:12.042Z,8.49
2022-09-23T01:15:33.660Z,8.54
2022-09-23T01:17:51.701Z,8.27
2022-09-23T01:20:09.801Z,8.27
2022-09-23T01:22:27.891Z,8.54
2022-09-23T01:24:45.985Z,8.27
2022-09-23T01:27:07.097Z,8.27
2022-09-23T01:29:25.167Z,8.49
2022-09-23T01:31:41.727Z,8.38
2022-09-23T01:34:00.663Z,8.33
2022-09-23T01:36:17.984Z,8.27
2022-09-23T01:38:36.008Z,8.06
2022-09-23T01:40:54.125Z,8.11
2022-09-23T01:43:12.171Z,8.27
2022-09-23T01:45:26.758Z,8.38
2022-09-23T01:47:44.852Z,8.16
2022-09-23T01:49:59.456Z,8.54
2022-09-23T01:52:15.932Z,8.49
2022-09-23T01:54:36.107Z,8.49
2022-09-23T01:56:57.194Z,8.27
2022-09-23T01:59:15.294Z,8.49
2022-09-23T02:01:33.463Z,8.27
2022-09-23T02:03:48.967Z,8.49
2022-09-23T02:06:04.546Z,8.22
2022-09-23T02:08:17.627Z,8.27
2022-09-23T02:10:31.210Z,8.27
2022-09-23T02:12:46.804Z,8.54
2022-09-23T02:15:02.400Z,8.33
2022-09-23T02:17:17.976Z,8.27
2022-09-23T02:19:36.048Z,8.33
2022-09-23T02:21:52.618Z,8.33
2022-09-23T02:24:08.225Z,8.11
2022-09-23T02:26:26.272Z,8.54
2022-09-23T02:28:44.366Z,8.33
2022-09-23T02:31:02.473Z,8.33
2022-09-23T02:33:18.054Z,8.27
2022-09-23T02:35:32.660Z,8.54
2022-09-23T02:37:48.291Z,8.11
2022-09-23T02:40:06.429Z,8.27
2022-09-23T02:42:21.996Z,8.06
2022-09-23T02:44:40.034Z,8.11
2022-09-23T02:46:58.208Z,8.38
2022-09-23T02:49:14.705Z,8.33
2022-09-23T02:51:35.783Z,8.33
2022-09-23T02:53:52.213Z,8.33
2022-09-23T02:56:07.042Z,8.33
2022-09-23T02:58:24.531Z,8.33
2022-09-23T03:00:41.685Z,8.33
2022-09-23T03:02:57.349Z,8.33
2022-09-23T03:05:15.362Z,8.06
2022-09-23T03:07:30.982Z,8.38
2022-09-23T03:09:44.565Z,8.00
2022-09-23T03:12:02.614Z,8.22
2022-09-23T03:14:18.053Z,8.27
2022-09-23T03:16:32.863Z,8.06
2022-09-23T03:18:53.411Z,8.38
2022-09-23T03:21:07.998Z,8.33
2022-09-23T03:23:26.070Z,8.11
2022-09-23T03:25:41.722Z,8.27
2022-09-23T03:27:57.235Z,8.38
2022-09-23T03:30:12.833Z,8.11
2022-09-23T03:32:31.788Z,8.06
2022-09-23T03:34:49.074Z,8.33
2022-09-23T03:37:07.094Z,8.16
2022-09-23T03:39:22.687Z,8.06
2022-09-23T03:41:38.291Z,8.33
2022-09-23T03:43:51.883Z,8.27
2022-09-23T03:46:07.491Z,8.33
2022-09-23T03:48:25.522Z,8.38
2022-09-23T03:50:41.130Z,8.06
2022-09-23T03:52:59.185Z,8.33
2022-09-23T03:55:14.828Z,8.00
2022-09-23T03:57:27.898Z,8.16
2022-09-23T03:59:48.490Z,8.16
2022-09-23T04:02:04.104Z,8.06
2022-09-23T04:04:17.665Z,8.27
2022-09-23T04:06:33.296Z,8.06
2022-09-23T04:08:48.834Z,8.06
2022-09-23T04:11:04.442Z,8.38
2022-09-23T04:13:19.982Z,8.11
2022-09-23T04:15:35.586Z,8.33
2022-09-23T04:17:51.189Z,8.33
2022-09-23T04:20:09.253Z,8.22
2022-09-23T04:22:24.859Z,8.27
2022-09-23T04:24:39.436Z,8.38
2022-09-23T04:26:57.519Z,8.22
2022-09-23T04:29:13.129Z,8.27
2022-09-23T04:31:28.786Z,8.33
2022-09-23T04:33:46.768Z,8.38
2022-09-23T04:36:02.374Z,8.22
2022-09-23T04:38:17.922Z,8.38
2022-09-23T04:40:31.638Z,8.11
2022-09-23T04:42:52.160Z,8.33
2022-09-23T04:45:07.706Z,8.22
2022-09-23T04:47:23.285Z,8.16
2022-09-23T04:49:41.447Z,8.16
2022-09-23T04:51:55.027Z,8.38
2022-09-23T04:54:10.549Z,8.38
2022-09-23T04:56:26.166Z,8.06
2022-09-23T04:58:42.558Z,8.11
2022-09-23T05:00:59.530Z,8.43
2022-09-23T05:03:14.314Z,8.11
2022-09-23T05:05:30.953Z,8.06
2022-09-23T05:07:46.541Z,8.22
2022-09-23T05:10:02.119Z,8.06
2022-09-23T05:12:14.234Z,8.11
2022-09-23T05:14:27.336Z,8.06
2022-09-23T05:16:42.959Z,8.33
2022-09-23T05:18:58.467Z,8.16
2022-09-23T05:21:19.066Z,8.27
2022-09-23T05:23:32.651Z,8.33
2022-09-23T05:25:48.258Z,8.06
2022-09-23T05:28:03.847Z,8.06
2022-09-23T05:30:19.412Z,8.06
2022-09-23T05:32:33.470Z,8.22
2022-09-23T05:34:48.548Z,8.33
2022-09-23T05:37:04.146Z,8.38
2022-09-23T05:39:22.213Z,8.33
2022-09-23T05:41:37.892Z,8.06
2022-09-23T05:43:50.909Z,8.33
2022-09-23T05:46:08.146Z,8.38
2022-09-23T05:48:21.083Z,8.22
2022-09-23T05:50:35.463Z,8.11
2022-09-23T05:52:51.045Z,8.38
2022-09-23T05:55:05.604Z,8.33
2022-09-23T05:57:20.194Z,8.27
2022-09-23T05:59:35.775Z,8.38
2022-09-23T06:01:56.413Z,8.33
2022-09-23T06:04:07.803Z,8.27
2022-09-23T06:06:22.989Z,8.33
2022-09-23T06:08:35.133Z,8.27
2022-09-23T06:10:54.301Z,8.06
2022-09-23T06:13:06.282Z,8.11
2022-09-23T06:15:19.861Z,7.95
2022-09-23T06:17:32.939Z,8.22
2022-09-23T06:19:49.380Z,8.06
2022-09-23T06:22:04.147Z,8.38
2022-09-23T06:24:22.306Z,8.33
2022-09-23T06:26:35.561Z,8.22
2022-09-23T06:28:50.866Z,8.16
2022-09-23T06:31:10.866Z,8.38
2022-09-23T06:33:33.726Z,8.33
2022-09-23T06:35:35.639Z,8.33
2022-09-23T06:37:52.057Z,8.43
2022-09-23T06:40:09.770Z,8.06
2022-09-23T06:42:24.895Z,8.33
2022-09-23T06:44:40.505Z,8.22
2022-09-23T06:46:56.150Z,8.22
2022-09-23T06:49:11.631Z,8.38
2022-09-23T06:51:25.272Z,8.33
2022-09-23T06:53:39.830Z,8.16
2022-09-23T06:55:52.762Z,8.11
2022-09-23T06:58:05.487Z,8.11
2022-09-23T07:00:19.077Z,8.11
2022-09-23T07:02:34.893Z,8.06
2022-09-23T07:04:47.756Z,8.33
2022-09-23T07:07:00.847Z,8.11
2022-09-23T07:09:14.407Z,8.38
2022-09-23T07:11:27.496Z,8.33
2022-09-23T07:13:43.071Z,8.11
2022-09-23T07:16:01.180Z,8.33
2022-09-23T07:18:17.754Z,8.22
2022-09-23T07:20:32.313Z,8.38
2022-09-23T07:22:46.226Z,8.06
2022-09-23T07:25:00.963Z,8.38
2022-09-23T07:27:16.547Z,8.22
2022-09-23T07:29:43.605Z,8.06
2022-09-23T07:30:33.099Z,8.33
2022-09-23T07:32:49.148Z,8.16
2022-09-23T07:35:03.298Z,8.33
2022-09-23T07:37:21.367Z,8.06
2022-09-23T07:39:36.962Z,8.33
2022-09-23T07:42:07.112Z,8.06
2022-09-23T07:44:21.102Z,8.27
2022-09-23T07:46:39.277Z,8.06
2022-09-23T07:48:57.294Z,8.06
2022-09-23T07:51:15.351Z,8.11
2022-09-23T07:53:31.002Z,8.33
2022-09-23T07:55:51.328Z,8.33
2022-09-23T07:58:06.953Z,8.38
2022-09-23T08:00:22.681Z,8.38
2022-09-23T08:02:40.650Z,8.33
2022-09-23T08:04:59.220Z,8.38
2022-09-23T08:07:16.821Z,8.06
2022-09-23T08:09:35.043Z,8.16
2022-09-23T08:11:51.434Z,8.33
2022-09-23T08:14:04.542Z,8.11
2022-09-23T08:16:20.195Z,8.33
2022-09-23T08:18:38.335Z,8.22
2022-09-23T08:20:53.786Z,8.16
2022-09-23T08:23:14.381Z,8.06
2022-09-23T08:25:34.598Z,8.33
2022-09-23T08:27:48.872Z,8.43
2022-09-23T08:30:08.611Z,8.33
2022-09-23T08:32:26.747Z,8.38
2022-09-23T08:34:42.312Z,8.00
2022-09-23T08:37:00.416Z,8.38
2022-09-23T08:39:13.474Z,8.06
2022-09-23T08:41:31.566Z,8.38
2022-09-23T08:43:49.644Z,8.33
2022-09-23T08:46:07.783Z,8.16
2022-09-23T08:48:23.324Z,8.33
2022-09-23T08:50:36.384Z,8.22
2022-09-23T08:52:51.970Z,8.33
2022-09-23T08:55:06.535Z,8.16
2022-09-23T08:57:24.747Z,8.11
2022-09-23T08:59:38.253Z,8.16
2022-09-23T09:01:56.303Z,8.11
2022-09-23T09:04:12.680Z,8.16
2022-09-23T09:06:29.263Z,8.22
2022-09-23T09:08:47.194Z,8.33
2022-09-23T09:11:07.675Z,8.11
2022-09-23T09:13:25.796Z,8.22
2022-09-23T09:15:42.352Z,8.22
2022-09-23T09:17:55.963Z,8.16
2022-09-23T09:20:11.538Z,8.38
2022-09-23T09:22:27.257Z,8.33
2022-09-23T09:24:45.178Z,8.38
2022-09-23T09:27:03.219Z,8.16
2022-09-23T09:29:35.816Z,8.33
2022-09-23T09:30:19.775Z,8.38
2022-09-23T09:32:36.904Z,8.33
2022-09-23T09:34:51.444Z,8.16
2022-09-23T09:37:07.891Z,8.38
2022-09-23T09:39:26.075Z,8.11
2022-09-23T09:41:38.194Z,8.33
2022-09-23T09:43:56.306Z,8.33
2022-09-23T09:46:11.915Z,8.27
2022-09-23T09:48:27.473Z,8.16
2022-09-23T09:50:45.564Z,8.11
2022-09-23T09:52:58.612Z,8.11
2022-09-23T09:55:12.712Z,8.38
2022-09-23T09:57:32.094Z,8.11
2022-09-23T09:59:43.330Z,8.16
2022-09-23T10:01:58.926Z,8.22
2022-09-23T10:04:12.563Z,8.33
2022-09-23T10:06:28.115Z,8.16
2022-09-23T10:08:43.707Z,8.16
2022-09-23T10:10:56.726Z,8.33
2022-09-23T10:13:12.322Z,8.27
2022-09-23T10:15:27.870Z,8.33
2022-09-23T10:17:43.461Z,8.38
2022-09-23T10:19:57.872Z,8.06
2022-09-23T10:22:09.127Z,8.33
2022-09-23T10:24:22.228Z,8.16
2022-09-23T10:26:36.770Z,8.16
2022-09-23T10:28:52.350Z,8.11
2022-09-23T10:31:05.953Z,8.33
2022-09-23T10:33:20.379Z,8.33
2022-09-23T10:35:33.127Z,8.11
2022-09-23T10:37:48.694Z,8.43
2022-09-23T10:40:00.808Z,8.11
2022-09-23T10:42:12.889Z,8.22
2022-09-23T10:44:24.979Z,8.33
2022-09-23T10:46:37.537Z,8.38
2022-09-23T10:48:50.984Z,8.33
2022-09-23T10:51:03.212Z,8.38
2022-09-23T10:53:15.295Z,8.22
2022-09-23T10:55:28.892Z,8.33
2022-09-23T10:57:42.505Z,8.11
2022-09-23T10:59:54.559Z,8.38
2022-09-23T11:02:06.652Z,8.16
2022-09-23T11:04:18.779Z,8.38
2022-09-23T11:06:31.840Z,8.11
2022-09-23T11:08:43.957Z,8.33
2022-09-23T11:10:57.986Z,8.27
2022-09-23T11:13:10.063Z,8.22
2022-09-23T11:15:23.143Z,8.11
2022-09-23T11:17:36.216Z,8.43
2022-09-23T11:19:48.316Z,8.38
2022-09-23T11:22:08.120Z,8.16
2022-09-23T11:24:15.961Z,8.11
2022-09-23T11:26:33.079Z,8.27
2022-09-23T11:28:41.623Z,8.11
2022-09-23T11:30:55.297Z,8.11
2022-09-23T11:33:08.301Z,7.84
2022-09-23T11:35:21.866Z,8.22
2022-09-23T11:37:33.946Z,8.16
2022-09-23T11:39:47.024Z,8.16
2022-09-23T11:42:00.637Z,8.11
2022-09-23T11:44:12.729Z,8.11
2022-09-23T11:46:25.844Z,8.33
2022-09-23T11:48:38.892Z,8.38
2022-09-23T11:50:54.472Z,8.43
2022-09-23T11:53:08.084Z,8.11
2022-09-23T11:55:23.211Z,8.16
2022-09-23T11:57:45.160Z,8.16
2022-09-23T11:58:34.267Z,8.11
2022-09-23T12:00:49.607Z,8.33
2022-09-23T12:03:04.848Z,8.33
2022-09-23T12:05:10.518Z,8.27
2022-09-23T12:07:22.511Z,8.38
2022-09-23T12:09:57.172Z,8.16
2022-09-23T12:11:46.689Z,8.16
2022-09-23T12:13:59.801Z,8.11
2022-09-23T12:16:13.384Z,8.33
2022-09-23T12:18:28.925Z,8.33
2022-09-23T12:20:42.547Z,8.33
2022-09-23T12:22:56.101Z,8.00
2022-09-23T12:25:09.165Z,7.90
2022-09-23T12:27:21.290Z,8.33
2022-09-23T12:29:34.870Z,7.95
2022-09-23T12:31:47.410Z,8.11
2022-09-23T12:33:59.078Z,8.16
2022-09-23T12:36:12.648Z,8.11
2022-09-23T12:38:24.739Z,8.27
2022-09-23T12:40:39.338Z,8.11
2022-09-23T12:42:50.457Z,8.06
2022-09-23T12:45:06.039Z,8.27
2022-09-23T12:47:18.154Z,8.38
2022-09-23T12:49:30.229Z,8.11
2022-09-23T12:51:43.304Z,8.00
2022-09-23T12:53:56.450Z,8.11
2022-09-23T12:56:08.504Z,8.16
2022-09-23T12:58:20.613Z,8.16
2022-09-23T13:00:34.395Z,8.16
2022-09-23T13:02:46.280Z,8.38
2022-09-23T13:04:59.922Z,8.11
2022-09-23T13:07:11.951Z,7.90
2022-09-23T13:09:24.047Z,8.16
2022-09-23T13:11:37.655Z,8.22
2022-09-23T13:13:51.212Z,8.16
2022-09-23T13:16:04.372Z,8.16
2022-09-23T13:18:16.368Z,7.90
2022-09-23T13:20:31.946Z,8.00
2022-09-23T13:22:44.029Z,8.16
2022-09-23T13:24:57.616Z,8.11
2022-09-23T13:27:11.247Z,7.90
2022-09-23T13:29:26.769Z,8.11
2022-09-23T13:31:40.416Z,8.11
2022-09-23T13:33:52.436Z,8.11
2022-09-23T13:36:04.528Z,8.16
2022-09-23T13:38:16.622Z,8.22
2022-09-23T13:40:28.804Z,8.00
2022-09-23T13:42:40.794Z,7.95
2022-09-23T13:44:53.864Z,7.90
2022-09-23T13:47:05.941Z,8.00
2022-09-23T13:49:18.049Z,8.16
2022-09-23T13:51:37.586Z,8.16
2022-09-23T13:58:48.356Z,8.16
2022-09-23T14:02:15.655Z,8.11
2022-09-23T14:04:30.232Z,8.16
2022-09-23T14:07:09.285Z,8.16
2022-09-23T14:08:55.760Z,8.16
2022-09-23T14:11:47.965Z,7.95
2022-09-23T14:13:28.442Z,8.16
2022-09-23T14:17:24.202Z,7.90
2022-09-23T14:19:02.992Z,8.00
2022-09-23T14:21:15.826Z,7.95
2022-09-23T14:23:30.583Z,7.95
2022-09-23T14:28:17.523Z,7.95
2022-09-23T14:30:33.641Z,8.16
2022-09-23T14:32:48.162Z,8.00
2022-09-23T14:35:01.270Z,8.16
2022-09-23T14:37:17.353Z,7.90
2022-09-23T14:39:27.906Z,8.00
2022-09-23T14:41:40.116Z,7.95
2022-09-23T14:43:56.718Z,7.90
2022-09-23T14:46:23.265Z,8.11
2022-09-23T14:48:25.390Z,8.16
2022-09-23T14:50:42.045Z,8.00
2022-09-23T14:52:57.635Z,7.95
2022-09-23T14:55:09.672Z,7.95
2022-09-23T14:57:23.287Z,8.11
2022-09-23T14:59:39.873Z,7.90
2022-09-23T15:01:55.468Z,7.95
2022-09-23T15:04:07.548Z,7.90
2022-09-23T15:06:41.538Z,8.00
2022-09-23T15:08:57.822Z,7.95
2022-09-23T15:10:52.825Z,8.11
2022-09-23T15:13:05.433Z,7.95
2022-09-23T15:15:17.558Z,7.95
2022-09-23T15:17:33.042Z,7.95
2022-09-23T15:19:46.149Z,7.90
2022-09-23T15:21:59.722Z,8.16
2022-09-23T15:24:16.445Z,8.16
2022-09-23T15:27:49.966Z,8.16
2022-09-23T15:30:03.107Z,8.22
2022-09-23T15:32:16.174Z,8.16
2022-09-23T15:34:29.755Z,8.06
2022-09-23T15:36:43.497Z,7.95
2022-09-23T15:38:58.911Z,8.11
2022-09-23T15:41:14.524Z,8.00
2022-09-23T15:43:30.073Z,8.22
2022-09-23T15:45:43.183Z,7.95
2022-09-23T15:47:58.725Z,7.95
2022-09-23T15:50:14.318Z,8.27
2022-09-23T15:52:27.911Z,8.06
2022-09-23T15:54:43.517Z,8.00
2022-09-23T15:56:59.062Z,8.16
2022-09-23T15:59:14.662Z,8.11
2022-09-23T16:01:28.343Z,7.95
2022-09-23T16:03:40.359Z,8.06
2022-09-23T16:05:55.918Z,7.95
2022-09-23T16:08:11.510Z,8.11
2022-09-23T16:10:25.086Z,8.00
2022-09-23T16:12:38.685Z,8.22
2022-09-23T16:14:52.282Z,7.84
2022-09-23T16:17:04.343Z,8.22
2022-09-23T16:19:18.427Z,8.00
2022-09-23T16:21:36.491Z,7.84
2022-09-23T16:23:50.088Z,8.00
2022-09-23T16:26:03.687Z,8.00
2022-09-23T16:28:16.756Z,7.79
2022-09-23T16:30:32.339Z,8.11
2022-09-23T16:32:47.950Z,7.95
2022-09-23T16:33:47.930Z,8.11
2022-09-23T16:36:00.985Z,7.90
2022-09-23T16:38:16.621Z,7.95
2022-09-23T16:40:31.250Z,8.16
2022-09-23T16:42:46.740Z,8.16
2022-09-23T16:45:04.804Z,8.00
2022-09-23T16:47:20.436Z,7.95
2022-09-23T16:49:36.024Z,8.16
2022-09-23T16:51:51.645Z,7.90
2022-09-23T16:54:04.761Z,8.11
2022-09-23T16:56:27.438Z,8.06
2022-09-23T16:58:40.902Z,8.06
2022-09-23T17:00:56.523Z,8.06
2022-09-23T17:03:17.101Z,8.22
2022-09-23T17:05:31.703Z,8.11
2022-09-23T17:07:47.278Z,7.90
2022-09-23T17:10:00.413Z,7.95
2022-09-23T17:12:14.053Z,7.84
2022-09-23T17:24:48.684Z,8.16
2022-09-23T17:28:13.407Z,8.00
2022-09-23T17:29:49.531Z,8.06
2022-09-23T17:34:12.200Z,7.84
2022-09-23T17:36:19.725Z,8.11
2022-09-23T17:38:32.185Z,8.06
2022-09-23T17:40:48.825Z,7.57
2022-09-23T17:43:04.333Z,7.95
2022-09-23T17:45:17.452Z,7.84
2022-09-23T17:47:37.317Z,7.95
2022-09-23T17:49:51.298Z,7.95
2022-09-23T17:52:04.262Z,7.84
2022-09-23T17:54:23.345Z,8.22
2022-09-23T17:56:39.226Z,8.11
2022-09-23T17:58:54.883Z,7.73
2022-09-23T18:01:09.456Z,7.95
2022-09-23T18:03:25.024Z,7.84
2022-09-23T18:05:45.182Z,8.11
2022-09-23T18:08:42.298Z,7.95
2022-09-23T18:12:47.646Z,7.95
2022-09-23T18:16:38.004Z,8.16
2022-09-23T18:21:53.659Z,7.84
2022-09-23T18:22:43.510Z,8.16
2022-09-23T18:24:55.526Z,8.00
2022-09-23T18:27:08.694Z,7.90
2022-09-23T18:30:46.876Z,8.06
2022-09-23T18:33:14.072Z,7.90
2022-09-23T18:34:57.694Z,7.73
2022-09-23T18:37:16.469Z,7.95
2022-09-23T18:39:30.132Z,8.11
2022-09-23T18:42:08.158Z,8.00
2022-09-23T18:45:37.600Z,8.11
2022-09-23T18:48:02.487Z,8.11
2022-09-23T18:49:48.655Z,7.84
2022-09-23T18:52:00.738Z,8.00
2022-09-23T18:54:15.761Z,7.84
2022-09-23T18:56:32.364Z,8.06
2022-09-23T18:58:46.972Z,8.22
2022-09-23T19:01:02.813Z,8.11
2022-09-23T19:16:38.633Z,7.63
2022-09-23T19:18:52.142Z,7.95
2022-09-23T19:21:09.582Z,7.68
2022-09-23T19:23:33.903Z,7.73
2022-09-23T19:25:39.730Z,8.06
2022-09-23T19:27:54.476Z,7.95
2022-09-23T19:30:07.567Z,7.95
2022-09-23T19:32:21.179Z,7.68
2022-09-23T19:34:37.254Z,7.73
2022-09-23T19:36:48.812Z,8.00
2022-09-23T19:39:04.763Z,7.73
2022-09-23T19:41:16.844Z,7.68
2022-09-23T19:43:31.581Z,7.79
2022-09-23T19:45:47.148Z,7.52
2022-09-23T19:48:00.763Z,7.90
2022-09-23T19:50:17.389Z,8.00
2022-09-23T19:52:32.503Z,8.00
2022-09-23T19:56:33.620Z,7.84
2022-09-23T19:58:19.829Z,8.00
2022-09-23T20:00:36.892Z,7.84
2022-09-23T20:02:49.986Z,7.90
2022-09-23T20:05:12.043Z,7.73
2022-09-23T20:07:21.147Z,7.68
2022-09-23T20:09:33.140Z,7.73
2022-09-23T20:11:46.233Z,7.95
2022-09-23T20:13:59.931Z,7.90
2022-09-23T20:16:12.039Z,7.68
2022-09-23T20:18:23.990Z,7.95
2022-09-23T20:20:36.043Z,7.90
2022-09-23T20:22:48.139Z,7.68
2022-09-23T20:25:01.044Z,7.79
2022-09-23T20:27:13.798Z,7.90
2022-09-23T20:29:25.928Z,7.68
2022-09-23T20:31:38.045Z,7.73
2022-09-23T20:33:51.582Z,7.73
2022-09-23T20:36:05.458Z,7.90
2022-09-23T20:38:17.545Z,7.95
2022-09-23T20:40:29.697Z,7.95
2022-09-23T20:42:41.696Z,7.95
2022-09-23T20:44:53.796Z,7.95
2022-09-23T20:47:07.798Z,7.95
2022-09-23T20:49:18.958Z,7.90
2022-09-23T20:51:31.113Z,7.90
2022-09-23T20:53:44.138Z,8.00
2022-09-23T20:55:56.213Z,7.95
2022-09-23T20:58:08.291Z,7.79
2022-09-23T21:00:21.884Z,7.79
2022-09-23T21:02:34.046Z,7.84
2022-09-23T21:04:46.035Z,7.84
2022-09-23T21:06:58.135Z,7.73
2022-09-23T21:09:10.201Z,7.84
2022-09-23T21:11:22.271Z,7.90
2022-09-23T21:13:34.401Z,7.68
2022-09-23T21:15:46.510Z,7.95
2022-09-23T21:17:58.528Z,7.73
2022-09-23T21:20:10.688Z,7.73
2022-09-23T21:22:23.687Z,8.00
2022-09-23T21:25:37.068Z,7.68
2022-09-23T21:27:47.870Z,7.73
2022-09-23T21:29:59.979Z,8.00
2022-09-23T21:32:13.524Z,7.73
2022-09-23T21:34:25.617Z,7.73
2022-09-23T21:36:37.715Z,7.68
2022-09-23T21:38:49.801Z,7.79
2022-09-23T21:41:01.898Z,7.90
2022-09-23T21:43:14.941Z,7.95
2022-09-23T21:45:27.014Z,7.68
2022-09-23T21:47:40.097Z,7.57
2022-09-23T21:49:52.491Z,7.95
2022-09-23T21:52:05.595Z,8.00
2022-09-23T21:54:17.648Z,7.68
2022-09-23T21:56:30.720Z,7.79
2022-09-23T21:58:42.807Z,7.63
2022-09-23T22:00:56.693Z,7.73
2022-09-23T22:03:08.802Z,7.84
2022-09-23T22:05:22.308Z,7.63
2022-09-23T22:07:35.393Z,7.90
2022-09-23T22:09:47.468Z,7.68
2022-09-23T22:12:00.559Z,7.79
2022-09-23T22:14:12.702Z,7.79
2022-09-23T22:16:24.821Z,7.68
2022-09-23T22:18:37.871Z,7.68
2022-09-23T22:20:48.948Z,7.84
2022-09-23T22:23:02.849Z,8.00
2022-09-23T22:25:14.162Z,7.68
2022-09-23T22:27:26.166Z,7.84
2022-09-23T22:29:38.248Z,7.79
2022-09-23T22:31:50.365Z,7.68
2022-09-23T22:34:02.419Z,7.90
2022-09-23T22:36:17.014Z,7.68
2022-09-23T22:38:29.102Z,7.90
2022-09-23T22:40:41.273Z,7.47
2022-09-23T22:42:54.760Z,8.00
2022-09-23T22:45:06.858Z,7.79
2022-09-23T22:47:20.473Z,8.00
2022-09-23T22:49:32.531Z,7.79
2022-09-23T22:51:44.618Z,7.95
2022-09-23T22:53:56.704Z,7.47
2022-09-23T22:56:09.776Z,7.68
2022-09-23T22:58:32.342Z,7.47
2022-09-23T23:00:35.439Z,7.73
2022-09-23T23:02:49.048Z,8.00
2022-09-23T23:05:02.632Z,7.90
2022-09-23T23:07:16.214Z,7.73
2022-09-23T23:09:28.340Z,7.90
2022-09-23T23:11:41.874Z,8.00
2022-09-23T23:13:54.955Z,7.95
2022-09-23T23:16:08.604Z,7.73
2022-09-23T23:18:21.635Z,7.73
2022-09-23T23:20:33.732Z,7.68
2022-09-23T23:22:45.817Z,7.79
2022-09-23T23:24:57.897Z,7.79
2022-09-23T23:27:10.002Z,7.73
2022-09-23T23:29:23.072Z,7.47
2022-09-23T23:31:36.742Z,7.95
2022-09-23T23:33:49.743Z,8.00
2022-09-23T23:36:01.828Z,7.63
2022-09-23T23:38:15.423Z,8.00
2022-09-23T23:40:29.075Z,8.00
2022-09-23T23:42:42.167Z,7.95
2022-09-23T23:44:55.721Z,7.95
2022-09-23T23:47:07.811Z,8.00
2022-09-23T23:49:22.236Z,7.52
2022-09-23T23:51:34.468Z,7.47
2022-09-23T23:53:46.571Z,7.73
2022-09-23T23:56:00.129Z,7.73
2022-09-23T23:58:13.232Z,7.68
